Time;durP1;ratioP1;P1;durP2;ratioP2;P2;SDS_P1;SDS_P2;PMS_P1;PMS_P2;Temp;Humidity;BMP_temperature;BMP_pressure;BME280_temperature;BME280_humidity;BME280_pressure;Samples;Min_cycle;Max_cycle;Signal;HPM_P1;HPM_P2
2022/03/12 00:00:08;;;;;;;3.67;2.90;;;16.50;42.30;;;;;;5078452;28;20263;-15
2022/03/12 00:02:34;;;;;;;4.47;3.20;;;16.50;42.30;;;;;;5078581;28;20156;-15
2022/03/12 00:05:06;;;;;;;4.10;3.17;;;16.50;42.20;;;;;;5077943;28;20730;-15
2022/03/12 00:07:32;;;;;;;3.10;2.80;;;16.50;42.20;;;;;;5077563;28;20188;-15
2022/03/12 00:09:57;;;;;;;3.70;3.00;;;16.50;42.10;;;;;;5078741;28;20166;-15
2022/03/12 00:12:24;;;;;;;4.30;2.90;;;16.50;42.10;;;;;;5078374;28;20207;-18
2022/03/12 00:14:50;;;;;;;3.67;2.97;;;16.40;42.10;;;;;;5077357;28;20185;-19
2022/03/12 00:17:18;;;;;;;4.77;2.90;;;16.40;42.00;;;;;;5077923;28;20239;-14
2022/03/12 00:19:44;;;;;;;3.57;2.87;;;16.40;42.00;;;;;;5078406;28;20498;-17
2022/03/12 00:22:12;;;;;;;3.40;2.63;;;16.40;41.90;;;;;;5078661;28;20629;-18
2022/03/12 00:24:40;;;;;;;3.33;3.00;;;16.40;41.80;;;;;;5077642;28;20177;-18
2022/03/12 00:27:10;;;;;;;4.23;3.10;;;16.40;41.80;;;;;;5077717;28;20185;-15
2022/03/12 00:29:36;;;;;;;4.00;3.00;;;16.40;41.80;;;;;;5079199;28;20247;-15
2022/03/12 00:32:05;;;;;;;3.50;3.10;;;16.40;41.80;;;;;;5077488;28;20212;-13
2022/03/12 00:34:31;;;;;;;2.90;2.57;;;16.30;41.80;;;;;;5077305;28;20163;-15
2022/03/12 00:36:57;;;;;;;5.20;3.10;;;16.40;41.80;;;;;;5077121;28;20177;-16
2022/03/12 00:39:22;;;;;;;3.73;2.97;;;16.30;41.70;;;;;;5076897;28;20602;-16
2022/03/12 00:41:48;;;;;;;3.40;2.67;;;16.30;41.70;;;;;;5077432;28;20662;-13
2022/03/12 00:44:18;;;;;;;3.70;3.00;;;16.30;41.70;;;;;;5077377;28;20165;-14
2022/03/12 00:46:45;;;;;;;3.37;2.83;;;16.30;41.60;;;;;;5077513;28;20263;-14
2022/03/12 00:49:11;;;;;;;3.13;2.80;;;16.30;41.60;;;;;;5078156;28;20177;-17
2022/03/12 00:51:38;;;;;;;3.57;2.97;;;16.30;41.60;;;;;;5077163;28;20265;-16
2022/03/12 00:54:04;;;;;;;4.53;3.20;;;16.30;41.60;;;;;;5078111;28;20173;-15
2022/03/12 00:56:30;;;;;;;3.87;2.90;;;16.30;41.60;;;;;;5077686;28;20550;-16
2022/03/12 00:58:57;;;;;;;3.70;2.93;;;16.30;41.70;;;;;;5077324;28;20169;-15
2022/03/12 01:01:25;;;;;;;4.70;2.93;;;16.30;41.70;;;;;;5077642;28;20183;-16
2022/03/12 01:03:50;;;;;;;3.77;3.07;;;16.30;41.70;;;;;;5077527;28;20262;-17
2022/03/12 01:06:18;;;;;;;6.13;4.03;;;16.30;41.70;;;;;;5077044;28;20549;-13
2022/03/12 01:08:44;;;;;;;5.20;2.80;;;16.20;42.10;;;;;;5077038;28;20215;-17
2022/03/12 01:11:11;;;;;;;3.30;2.57;;;16.20;41.70;;;;;;5077944;28;20210;-16
2022/03/12 01:13:38;;;;;;;3.90;2.80;;;16.20;41.70;;;;;;5077349;28;20683;-15
2022/03/12 01:16:05;;;;;;;3.80;3.00;;;16.20;42.10;;;;;;5077547;28;20153;-14
2022/03/12 01:18:31;;;;;;;5.93;3.17;;;16.20;41.70;;;;;;5077909;28;20583;-14
2022/03/12 01:21:11;;;;;;;4.37;2.93;;;16.20;41.70;;;;;;5077276;28;20196;-13
2022/03/12 01:23:37;;;;;;;3.63;3.00;;;16.20;41.70;;;;;;5077454;28;20199;-16
2022/03/12 01:26:03;;;;;;;3.93;3.00;;;16.20;41.60;;;;;;5060550;28;20179;-15
2022/03/12 01:28:28;;;;;;;5.33;2.90;;;16.20;41.50;;;;;;5077172;28;20168;-18
2022/03/12 01:30:54;;;;;;;5.70;3.00;;;16.20;41.60;;;;;;5076619;28;20290;-16
2022/03/12 01:33:20;;;;;;;4.07;3.20;;;16.20;41.60;;;;;;5075581;28;20458;-17
2022/03/12 01:35:46;;;;;;;3.97;3.17;;;16.10;41.40;;;;;;5077530;28;20156;-17
2022/03/12 01:38:13;;;;;;;4.23;2.93;;;16.20;41.50;;;;;;5077040;28;20170;-15
2022/03/12 01:40:39;;;;;;;4.30;2.93;;;16.10;41.50;;;;;;5076302;28;20172;-17
2022/03/12 01:43:05;;;;;;;4.57;3.20;;;16.10;41.40;;;;;;5076981;28;20203;-16
2022/03/12 01:45:34;;;;;;;3.50;3.00;;;16.20;41.50;;;;;;5076081;28;20207;-18
2022/03/12 01:48:01;;;;;;;4.53;3.40;;;16.10;41.40;;;;;;5075896;28;20723;-16
2022/03/12 01:50:36;;;;;;;4.57;3.27;;;16.10;41.40;;;;;;5075576;28;20172;-16
2022/03/12 01:53:09;;;;;;;5.27;3.10;;;16.10;41.40;;;;;;5076930;28;20239;-13
2022/03/12 01:55:39;;;;;;;5.43;3.30;;;16.10;41.40;;;;;;5076906;28;20199;-15
2022/03/12 01:58:05;;;;;;;3.20;2.60;;;16.10;41.80;;;;;;5075748;28;20172;-16
2022/03/12 02:00:43;;;;;;;3.83;3.00;;;16.10;41.40;;;;;;5076651;28;20176;-15
2022/03/12 02:03:10;;;;;;;4.03;2.80;;;16.10;41.40;;;;;;5076730;28;20605;-16
2022/03/12 02:05:37;;;;;;;4.47;2.90;;;16.10;41.40;;;;;;5076467;28;20176;-17
2022/03/12 02:08:03;;;;;;;4.10;2.83;;;16.10;41.50;;;;;;5077548;28;20167;-16
2022/03/12 02:10:29;;;;;;;4.40;3.00;;;16.00;41.40;;;;;;5076428;28;20173;-14
2022/03/12 02:12:55;;;;;;;3.63;2.80;;;16.00;41.40;;;;;;5076182;28;20322;-15
2022/03/12 02:15:22;;;;;;;3.67;2.97;;;16.00;41.50;;;;;;5076914;28;20226;-16
2022/03/12 02:17:50;;;;;;;3.30;2.90;;;16.00;41.50;;;;;;5075816;28;20175;-15
2022/03/12 02:20:17;;;;;;;3.70;2.70;;;16.00;41.50;;;;;;5076619;28;20183;-15
2022/03/12 02:22:45;;;;;;;3.90;3.20;;;16.00;41.50;;;;;;5074979;28;20614;-15
2022/03/12 02:25:11;;;;;;;4.57;3.10;;;16.00;41.50;;;;;;5075990;28;20199;-20
2022/03/12 02:27:37;;;;;;;3.63;2.80;;;16.00;41.50;;;;;;5076530;28;20467;-17
2022/03/12 02:30:08;;;;;;;5.40;2.90;;;16.00;41.50;;;;;;5075942;28;20163;-15
2022/03/12 02:32:36;;;;;;;3.20;2.90;;;16.00;41.50;;;;;;5076323;28;20184;-15
2022/03/12 02:35:03;;;;;;;3.13;2.83;;;16.00;41.40;;;;;;5075625;28;20196;-15
2022/03/12 02:37:35;;;;;;;4.57;3.00;;;16.00;41.50;;;;;;5076635;28;20665;-19
2022/03/12 02:40:06;;;;;;;3.60;3.00;;;16.00;41.50;;;;;;5075622;28;20541;-15
2022/03/12 02:42:36;;;;;;;4.40;2.80;;;16.00;41.50;;;;;;5077365;28;20259;-13
2022/03/12 02:45:07;;;;;;;3.47;2.83;;;16.00;41.40;;;;;;5076596;28;20148;-13
2022/03/12 02:47:35;;;;;;;3.23;2.80;;;16.00;41.40;;;;;;5067963;28;20170;-16
2022/03/12 02:50:06;;;;;;;4.37;2.87;;;15.90;41.40;;;;;;5075017;28;20625;-15
2022/03/12 02:52:36;;;;;;;3.43;2.93;;;15.90;41.40;;;;;;5075018;28;20498;-15
2022/03/12 02:55:02;;;;;;;3.50;2.87;;;15.90;41.40;;;;;;5074630;28;20175;-17
2022/03/12 02:57:29;;;;;;;3.37;2.93;;;16.00;41.40;;;;;;5075973;28;20249;-14
2022/03/12 03:00:00;;;;;;;3.57;2.83;;;15.90;41.40;;;;;;5076161;28;20161;-17
2022/03/12 03:02:33;;;;;;;2.97;2.57;;;15.90;41.40;;;;;;5078834;28;20197;-15
2022/03/12 03:04:59;;;;;;;3.57;3.13;;;15.90;41.40;;;;;;5079993;28;20444;-18
2022/03/12 03:07:24;;;;;;;2.97;2.67;;;15.90;41.40;;;;;;5080267;28;20251;-19
2022/03/12 03:09:50;;;;;;;4.53;2.80;;;15.90;41.40;;;;;;5079744;28;20582;-15
2022/03/12 03:12:16;;;;;;;3.27;2.67;;;15.90;41.40;;;;;;5079289;28;20204;-17
2022/03/12 03:14:46;;;;;;;3.73;2.90;;;15.90;41.40;;;;;;5078859;28;20206;-14
2022/03/12 03:17:12;;;;;;;3.50;2.57;;;15.90;41.40;;;;;;5079033;28;20517;-14
2022/03/12 03:19:38;;;;;;;4.00;2.80;;;15.80;41.30;;;;;;5078020;28;20588;-16
2022/03/12 03:22:05;;;;;;;2.87;2.57;;;15.80;41.30;;;;;;5079428;28;20185;-14
2022/03/12 03:24:31;;;;;;;3.73;2.93;;;15.90;41.30;;;;;;5078103;28;20169;-17
2022/03/12 03:26:59;;;;;;;3.00;2.63;;;15.80;41.30;;;;;;5079929;28;20278;-14
2022/03/12 03:29:30;;;;;;;3.57;2.67;;;15.80;41.30;;;;;;5078931;28;20188;-14
2022/03/12 03:32:01;;;;;;;3.60;2.70;;;15.80;41.30;;;;;;5079257;28;20333;-15
2022/03/12 03:34:29;;;;;;;3.47;3.03;;;15.80;41.30;;;;;;5078743;28;20695;-17
2022/03/12 03:36:55;;;;;;;3.30;3.00;;;15.80;41.20;;;;;;5078751;28;20190;-19
2022/03/12 03:39:20;;;;;;;3.53;2.80;;;15.80;41.30;;;;;;5077977;28;20647;-13
2022/03/12 03:41:46;;;;;;;3.80;2.83;;;15.80;41.20;;;;;;5079748;28;20173;-16
2022/03/12 03:44:12;;;;;;;3.10;2.80;;;15.80;41.20;;;;;;5079223;28;20185;-15
2022/03/12 03:46:38;;;;;;;4.30;3.00;;;15.80;41.20;;;;;;5078236;28;20191;-15
2022/03/12 03:49:07;;;;;;;3.87;2.70;;;15.80;41.20;;;;;;5078849;28;20161;-17
2022/03/12 03:51:41;;;;;;;3.47;3.10;;;15.80;41.30;;;;;;5080190;28;20225;-17
2022/03/12 03:54:08;;;;;;;3.80;2.87;;;15.80;41.20;;;;;;5094632;28;20560;-16
2022/03/12 03:56:34;;;;;;;3.10;2.80;;;15.80;41.20;;;;;;5093607;28;20249;-13
2022/03/12 03:59:00;;;;;;;3.13;2.83;;;15.80;41.20;;;;;;5081426;28;20666;-14
2022/03/12 04:01:26;;;;;;;3.43;2.93;;;15.80;41.20;;;;;;5091524;28;20249;-19
2022/03/12 04:03:52;;;;;;;3.13;2.83;;;15.80;41.20;;;;;;5081939;28;20175;-14
2022/03/12 04:06:22;;;;;;;4.77;2.97;;;15.70;41.00;;;;;;5084468;28;20191;-16
2022/03/12 04:08:49;;;;;;;3.10;2.57;;;15.70;41.10;;;;;;5074399;28;20202;-14
2022/03/12 04:11:23;;;;;;;3.90;3.03;;;15.70;41.10;;;;;;5086199;28;20227;-12
2022/03/12 04:13:51;;;;;;;4.83;3.10;;;15.70;41.50;;;;;;5088609;28;20176;-14
2022/03/12 04:16:19;;;;;;;3.63;3.00;;;15.70;41.10;;;;;;5088013;28;20187;-15
2022/03/12 04:18:46;;;;;;;3.17;2.87;;;15.70;41.10;;;;;;5082770;28;20187;-13
2022/03/12 04:21:13;;;;;;;3.20;2.90;;;15.70;41.10;;;;;;5093635;28;20198;-13
2022/03/12 04:23:43;;;;;;;3.70;3.10;;;15.70;41.10;;;;;;5078869;28;20174;-16
2022/03/12 04:26:13;;;;;;;3.13;2.83;;;15.70;41.10;;;;;;5077456;28;20184;-15
2022/03/12 04:28:39;;;;;;;3.97;2.50;;;15.70;41.10;;;;;;5077505;28;20337;-15
2022/03/12 04:31:06;;;;;;;3.87;2.87;;;15.70;41.10;;;;;;5078220;28;20195;-16
2022/03/12 04:33:33;;;;;;;3.43;2.87;;;15.70;41.20;;;;;;5077836;28;20541;-13
2022/03/12 04:36:02;;;;;;;4.33;2.80;;;15.60;41.10;;;;;;5076867;28;20218;-13
2022/03/12 04:38:27;;;;;;;3.13;2.83;;;15.70;41.20;;;;;;5079899;28;20495;-15
2022/03/12 04:40:55;;;;;;;3.40;3.10;;;15.70;41.10;;;;;;5087486;28;20257;-15
2022/03/12 04:43:21;;;;;;;5.13;2.90;;;15.60;41.00;;;;;;5086191;28;20231;-14
2022/03/12 04:45:49;;;;;;;3.40;2.90;;;15.60;41.10;;;;;;5094492;28;20563;-17
2022/03/12 04:48:17;;;;;;;3.67;2.90;;;15.60;41.00;;;;;;5079134;28;20775;-15
2022/03/12 04:50:43;;;;;;;3.57;2.83;;;15.60;41.00;;;;;;5080396;28;20601;-16
2022/03/12 04:53:10;;;;;;;3.87;3.10;;;15.60;41.00;;;;;;5090334;28;20172;-17
2022/03/12 04:55:36;;;;;;;4.30;2.93;;;15.60;41.00;;;;;;5087758;28;20269;-16
2022/03/12 04:58:04;;;;;;;3.27;2.97;;;15.60;41.00;;;;;;5091682;28;20175;-13
2022/03/12 05:00:31;;;;;;;3.20;2.90;;;15.60;41.40;;;;;;5097075;28;20189;-19
2022/03/12 05:03:08;;;;;;;3.77;3.03;;;15.60;40.90;;;;;;5097012;28;20536;-13
2022/03/12 05:05:39;;;;;;;3.03;2.73;;;15.60;40.90;;;;;;5097512;28;20167;-14
2022/03/12 05:08:07;;;;;;;4.17;3.20;;;15.60;40.90;;;;;;5097648;28;20163;-16
2022/03/12 05:10:34;;;;;;;4.10;3.00;;;15.60;40.80;;;;;;5096608;28;20172;-13
2022/03/12 05:13:02;;;;;;;3.73;3.03;;;15.50;40.70;;;;;;5097116;28;20183;-17
2022/03/12 05:15:37;;;;;;;3.50;3.10;;;15.50;40.70;;;;;;5096796;28;20483;-16
2022/03/12 05:18:11;;;;;;;3.37;3.00;;;15.50;40.70;;;;;;5097447;28;20166;-17
2022/03/12 05:20:46;;;;;;;3.90;3.20;;;15.50;40.60;;;;;;5096452;28;20256;-17
2022/03/12 05:23:13;;;;;;;3.77;3.10;;;15.50;40.60;;;;;;5096574;28;20259;-15
2022/03/12 05:25:43;;;;;;;4.20;3.13;;;15.50;40.60;;;;;;5096053;28;20171;-16
2022/03/12 05:28:15;;;;;;;3.67;2.97;;;15.50;40.50;;;;;;5097037;28;20178;-16
2022/03/12 05:30:45;;;;;;;3.40;2.80;;;15.50;40.50;;;;;;5096853;28;20217;-15
2022/03/12 05:33:11;;;;;;;4.90;3.20;;;15.50;40.50;;;;;;5096570;28;20171;-16
2022/03/12 05:35:40;;;;;;;3.40;3.10;;;15.50;40.50;;;;;;5097060;28;20172;-15
2022/03/12 05:38:06;;;;;;;3.37;3.03;;;15.50;40.50;;;;;;5096130;28;20202;-16
2022/03/12 05:40:38;;;;;;;4.10;3.00;;;15.50;40.50;;;;;;5096298;28;20236;-13
2022/03/12 05:43:09;;;;;;;3.33;2.90;;;15.40;40.40;;;;;;5096372;28;20190;-17
2022/03/12 05:45:35;;;;;;;3.43;3.03;;;15.50;40.50;;;;;;5096391;28;20236;-13
2022/03/12 05:48:02;;;;;;;3.60;3.30;;;15.50;40.50;;;;;;5096903;28;20175;-16
2022/03/12 05:50:28;;;;;;;3.80;3.20;;;15.50;40.50;;;;;;5096206;28;20198;-15
2022/03/12 05:52:54;;;;;;;4.43;3.20;;;15.40;40.50;;;;;;5096679;28;20219;-14
2022/03/12 05:55:23;;;;;;;4.30;3.10;;;15.40;40.50;;;;;;5097329;28;20461;-14
2022/03/12 05:57:50;;;;;;;3.47;2.90;;;15.40;40.50;;;;;;5096144;28;20175;-14
2022/03/12 06:00:17;;;;;;;4.27;3.20;;;15.40;40.60;;;;;;5096246;28;20175;-16
2022/03/12 06:02:52;;;;;;;3.30;2.80;;;15.40;40.60;;;;;;5096967;28;20310;-17
2022/03/12 06:05:19;;;;;;;3.57;3.07;;;15.40;40.60;;;;;;5097084;28;20446;-16
2022/03/12 06:07:46;;;;;;;4.13;3.27;;;15.40;40.60;;;;;;5095930;28;20185;-16
2022/03/12 06:10:28;;;;;;;3.70;3.10;;;15.40;40.60;;;;;;5096677;28;20171;-13
2022/03/12 06:12:56;;;;;;;4.00;3.03;;;15.40;40.60;;;;;;5096499;28;20177;-16
2022/03/12 06:15:23;;;;;;;3.30;3.00;;;15.40;40.60;;;;;;5095682;28;20171;-15
2022/03/12 06:17:50;;;;;;;3.40;3.00;;;15.40;40.60;;;;;;5096072;28;20550;-16
2022/03/12 06:20:17;;;;;;;4.20;3.10;;;15.40;40.60;;;;;;5096124;28;20694;-12
2022/03/12 06:22:44;;;;;;;4.30;3.40;;;15.40;40.60;;;;;;5095460;28;20177;-15
2022/03/12 06:25:13;;;;;;;4.50;3.37;;;15.40;40.60;;;;;;5095245;28;20282;-13
2022/03/12 06:27:42;;;;;;;3.30;3.00;;;15.40;40.60;;;;;;5095302;28;20173;-15
2022/03/12 06:30:10;;;;;;;3.50;2.90;;;15.40;40.60;;;;;;5096057;28;20182;-15
2022/03/12 06:32:38;;;;;;;3.83;3.10;;;15.40;40.50;;;;;;5095009;28;20202;-13
2022/03/12 06:35:06;;;;;;;3.40;3.10;;;15.40;40.50;;;;;;5096297;28;20167;-15
2022/03/12 06:37:33;;;;;;;5.20;3.37;;;15.40;40.50;;;;;;5099725;28;20171;-14
2022/03/12 06:40:00;;;;;;;3.30;2.63;;;15.50;40.50;;;;;;5100237;28;20173;-16
2022/03/12 06:42:28;;;;;;;4.33;3.10;;;15.50;40.50;;;;;;5099910;28;20203;-13
2022/03/12 06:44:56;;;;;;;4.30;3.13;;;15.50;40.40;;;;;;5098857;28;20178;-14
2022/03/12 06:47:25;;;;;;;3.63;2.90;;;15.50;40.40;;;;;;5099843;28;20232;-20
2022/03/12 06:49:51;;;;;;;3.63;3.17;;;15.60;40.30;;;;;;5098713;28;20178;-19
2022/03/12 06:52:19;;;;;;;3.60;3.30;;;15.70;40.20;;;;;;5100075;28;20204;-16
2022/03/12 06:54:46;;;;;;;4.07;3.33;;;15.70;40.20;;;;;;5098871;28;20169;-14
2022/03/12 06:57:12;;;;;;;5.57;3.10;;;15.70;40.20;;;;;;5099871;28;20587;-19
2022/03/12 06:59:38;;;;;;;3.53;3.00;;;15.70;40.20;;;;;;5099616;28;20193;-17
2022/03/12 07:02:04;;;;;;;3.93;3.00;;;15.70;40.30;;;;;;5100033;28;20209;-16
2022/03/12 07:04:30;;;;;;;3.30;3.00;;;15.70;40.30;;;;;;5098064;28;20503;-15
2022/03/12 07:06:56;;;;;;;3.90;3.40;;;15.80;40.20;;;;;;5088458;28;20284;-19
2022/03/12 07:09:21;;;;;;;3.53;3.23;;;15.90;40.00;;;;;;5094777;28;20173;-17
2022/03/12 07:11:47;;;;;;;3.60;3.20;;;16.10;39.90;;;;;;5090628;28;20694;-19
2022/03/12 07:14:13;;;;;;;3.47;3.17;;;16.30;39.60;;;;;;5096948;28;20265;-14
2022/03/12 07:16:39;;;;;;;3.80;3.40;;;16.50;39.30;;;;;;5088107;28;20199;-17
2022/03/12 07:19:04;;;;;;;3.97;3.53;;;16.70;39.10;;;;;;5088083;28;20421;-20
2022/03/12 07:21:30;;;;;;;3.93;3.10;;;16.80;38.90;;;;;;5088202;28;20584;-22
2022/03/12 07:23:56;;;;;;;3.17;2.87;;;16.90;38.80;;;;;;5085806;28;20182;-16
2022/03/12 07:26:22;;;;;;;3.30;2.87;;;16.90;38.90;;;;;;5085260;28;20170;-17
2022/03/12 07:28:49;;;;;;;3.43;3.13;;;16.70;39.00;;;;;;5082372;28;20320;-19
2022/03/12 07:31:18;;;;;;;3.10;2.80;;;16.80;39.00;;;;;;5078111;28;20200;-22
2022/03/12 07:33:45;;;;;;;3.23;2.93;;;16.80;38.90;;;;;;5076042;28;20207;-17
2022/03/12 07:36:11;;;;;;;3.37;3.00;;;16.80;39.00;;;;;;5073482;28;20245;-19
2022/03/12 07:38:36;;;;;;;3.23;2.93;;;16.80;39.00;;;;;;5073650;28;20169;-19
2022/03/12 07:41:02;;;;;;;3.17;2.87;;;16.70;39.10;;;;;;5075321;28;20168;-14
2022/03/12 07:43:28;;;;;;;3.90;2.87;;;16.70;39.10;;;;;;5074383;28;20586;-19
2022/03/12 07:45:54;;;;;;;3.63;2.90;;;16.70;39.20;;;;;;5074456;28;20181;-16
2022/03/12 07:48:20;;;;;;;3.37;2.97;;;16.60;39.20;;;;;;5073461;28;20257;-18
2022/03/12 07:50:46;;;;;;;3.73;3.20;;;16.60;39.20;;;;;;5072650;28;20243;-17
2022/03/12 07:53:12;;;;;;;3.60;3.03;;;16.60;39.20;;;;;;5072394;28;20284;-19
2022/03/12 07:55:39;;;;;;;3.30;3.00;;;16.80;39.20;;;;;;5073594;28;20167;-19
2022/03/12 07:58:05;;;;;;;3.23;2.93;;;17.10;39.00;;;;;;5073188;28;20450;-17
2022/03/12 08:00:31;;;;;;;3.03;2.73;;;17.20;38.90;;;;;;5072151;28;20179;-17
2022/03/12 08:02:58;;;;;;;3.67;3.10;;;17.10;38.80;;;;;;5071982;28;20218;-17
2022/03/12 08:05:25;;;;;;;2.60;2.40;;;17.00;38.90;;;;;;5073994;28;20166;-17
2022/03/12 08:07:54;;;;;;;3.30;3.00;;;17.00;39.00;;;;;;5072891;28;20187;-20
2022/03/12 08:10:21;;;;;;;3.67;3.00;;;17.00;39.10;;;;;;5072810;28;20560;-15
2022/03/12 08:12:48;;;;;;;3.30;3.00;;;16.90;39.20;;;;;;5072979;28;20243;-17
2022/03/12 08:15:15;;;;;;;4.70;3.13;;;16.90;39.20;;;;;;5073770;28;20446;-19
2022/03/12 08:17:41;;;;;;;3.43;2.80;;;17.00;39.00;;;;;;5072471;28;20171;-19
2022/03/12 08:20:08;;;;;;;3.03;2.70;;;17.10;39.20;;;;;;5071397;28;20198;-17
2022/03/12 08:22:45;;;;;;;2.80;2.60;;;17.20;39.20;;;;;;5071632;28;20178;-17
2022/03/12 08:25:12;;;;;;;3.87;2.90;;;17.30;39.10;;;;;;5072974;28;20175;-20
2022/03/12 08:27:39;;;;;;;2.60;2.40;;;17.40;38.90;;;;;;5072087;28;20658;-16
2022/03/12 08:30:07;;;;;;;4.47;2.77;;;17.50;39.10;;;;;;5071958;28;20183;-20
2022/03/12 08:32:35;;;;;;;3.37;2.93;;;17.40;39.10;;;;;;5072979;28;20366;-20
2022/03/12 08:35:05;;;;;;;3.00;2.70;;;17.50;39.20;;;;;;5072132;28;20503;-18
2022/03/12 08:37:31;;;;;;;2.60;2.40;;;17.70;39.10;;;;;;5071495;28;20455;-19
2022/03/12 08:39:57;;;;;;;3.20;2.60;;;17.80;38.90;;;;;;5071195;28;20172;-15
2022/03/12 08:42:24;;;;;;;2.73;2.53;;;18.00;38.90;;;;;;5071615;28;20184;-16
2022/03/12 08:44:51;;;;;;;3.00;2.70;;;18.10;38.80;;;;;;5071543;28;20442;-18
2022/03/12 08:47:17;;;;;;;4.13;3.13;;;18.20;38.80;;;;;;5072160;28;20193;-19
2022/03/12 08:49:42;;;;;;;3.87;3.00;;;18.40;39.20;;;;;;5071178;28;20167;-16
2022/03/12 08:52:08;;;;;;;3.13;2.83;;;18.40;38.60;;;;;;5071661;28;20267;-17
2022/03/12 08:54:35;;;;;;;3.10;2.80;;;18.60;38.60;;;;;;5071566;28;20284;-18
2022/03/12 08:57:02;;;;;;;2.67;2.47;;;18.60;38.50;;;;;;5071218;28;20164;-19
2022/03/12 08:59:27;;;;;;;2.77;2.57;;;18.70;38.50;;;;;;5068878;28;20175;-22
2022/03/12 09:01:53;;;;;;;3.00;2.67;;;18.70;38.50;;;;;;5069463;28;20244;-22
2022/03/12 09:04:19;;;;;;;2.80;2.60;;;18.80;38.50;;;;;;5071653;28;20598;-17
2022/03/12 09:06:46;;;;;;;3.00;2.67;;;18.90;38.40;;;;;;5070452;28;20167;-18
2022/03/12 09:09:13;;;;;;;4.07;2.43;;;19.00;38.40;;;;;;5070065;28;20497;-16
2022/03/12 09:11:39;;;;;;;2.63;2.37;;;18.90;38.60;;;;;;5070153;28;20236;-18
2022/03/12 09:14:04;;;;;;;3.43;2.80;;;19.00;39.30;;;;;;5069362;28;20172;-19
2022/03/12 09:16:30;;;;;;;2.63;2.43;;;19.00;39.60;;;;;;5070459;28;20176;-19
2022/03/12 09:18:56;;;;;;;4.67;2.60;;;19.10;39.60;;;;;;5070055;28;20163;-21
2022/03/12 09:21:25;;;;;;;3.17;2.87;;;19.20;39.60;;;;;;5069048;28;20187;-18
2022/03/12 09:23:52;;;;;;;3.80;2.40;;;19.40;39.50;;;;;;5071879;28;20188;-22
2022/03/12 09:26:21;;;;;;;5.73;3.13;;;19.50;39.50;;;;;;5068768;28;20168;-21
2022/03/12 09:28:48;;;;;;;6.17;2.83;;;19.90;42.10;;;;;;5069619;28;20171;-19
2022/03/12 09:31:14;;;;;;;6.40;3.00;;;20.10;41.60;;;;;;5069475;28;20554;-19
2022/03/12 09:33:40;;;;;;;7.17;3.03;;;19.90;41.20;;;;;;5068457;28;20171;-18
2022/03/12 09:36:07;;;;;;;4.30;3.07;;;19.50;41.10;;;;;;5071506;28;20167;-22
2022/03/12 09:38:33;;;;;;;5.47;2.80;;;19.20;41.50;;;;;;5068103;28;20171;-20
2022/03/12 09:40:59;;;;;;;6.53;3.20;;;18.90;41.70;;;;;;5070609;28;20241;-21
2022/03/12 09:43:24;;;;;;;4.70;2.90;;;18.70;42.00;;;;;;5068366;28;20203;-21
2022/03/12 09:45:50;;;;;;;6.33;2.87;;;18.50;42.20;;;;;;5067878;28;20237;-18
2022/03/12 09:48:18;;;;;;;6.60;3.10;;;18.30;42.40;;;;;;5069834;28;20234;-20
2022/03/12 09:50:43;;;;;;;8.17;3.00;;;18.20;42.90;;;;;;5070760;28;20609;-20
2022/03/12 09:53:09;;;;;;;5.60;3.20;;;18.10;42.50;;;;;;5070425;28;20163;-19
2022/03/12 09:55:35;;;;;;;4.93;3.00;;;18.00;42.60;;;;;;5070531;28;20179;-23
2022/03/12 09:58:00;;;;;;;7.57;3.03;;;18.00;42.60;;;;;;5070575;28;20167;-21
2022/03/12 10:00:26;;;;;;;5.23;3.30;;;17.90;42.60;;;;;;5069688;28;20201;-21
2022/03/12 10:02:52;;;;;;;7.73;3.30;;;17.90;42.50;;;;;;5070410;28;20168;-22
2022/03/12 10:05:18;;;;;;;6.20;3.03;;;17.90;42.70;;;;;;5068118;28;20191;-19
2022/03/12 10:07:43;;;;;;;10.50;3.20;;;17.90;42.50;;;;;;5069085;28;20190;-18
2022/03/12 10:10:15;;;;;;;4.53;2.83;;;17.80;42.50;;;;;;5069989;28;20194;-23
2022/03/12 10:12:41;;;;;;;10.23;3.10;;;17.80;42.40;;;;;;5071646;28;20256;-21
2022/03/12 10:15:08;;;;;;;8.00;3.60;;;17.80;42.50;;;;;;5072890;28;20593;-21
2022/03/12 10:17:34;;;;;;;7.83;3.40;;;17.80;42.40;;;;;;5073629;28;20171;-19
2022/03/12 10:20:00;;;;;;;5.93;2.87;;;17.80;42.30;;;;;;5072328;28;20179;-20
2022/03/12 10:22:25;;;;;;;8.60;3.87;;;17.80;42.50;;;;;;5074050;28;20179;-19
2022/03/12 10:24:51;;;;;;;10.33;3.20;;;17.90;43.30;;;;;;5071960;28;20167;-20
2022/03/12 10:27:17;;;;;;;18.53;3.53;;;17.90;43.30;;;;;;5073790;28;20183;-20
2022/03/12 10:29:42;;;;;;;8.20;3.03;;;17.90;43.00;;;;;;5071916;28;20171;-19
2022/03/12 10:32:26;;;;;;;17.17;3.50;;;17.90;43.00;;;;;;5055422;28;20203;-18
2022/03/12 10:34:56;;;;;;;6.30;2.90;;;17.90;43.30;;;;;;5073049;28;20174;-19
2022/03/12 10:37:24;;;;;;;6.87;2.97;;;17.90;43.50;;;;;;5069965;28;20170;-20
2022/03/12 10:40:12;;;;;;;8.77;2.90;;;17.90;43.70;;;;;;5072190;28;20235;-20
2022/03/12 10:42:46;;;;;;;11.63;3.23;;;17.90;43.60;;;;;;5072448;28;20482;-18
2022/03/12 10:45:17;;;;;;;7.37;2.67;;;17.90;43.50;;;;;;5071355;28;20501;-21
2022/03/12 10:47:48;;;;;;;8.00;3.10;;;17.90;43.60;;;;;;5071400;28;20177;-23
2022/03/12 10:50:20;;;;;;;7.17;3.10;;;18.00;43.70;;;;;;5071765;28;20179;-19
2022/03/12 10:52:49;;;;;;;6.57;3.10;;;17.90;43.70;;;;;;5071929;28;20292;-20
2022/03/12 10:55:36;;;;;;;7.90;3.03;;;18.00;43.60;;;;;;5072575;28;20464;-21
2022/03/12 10:58:05;;;;;;;5.80;3.17;;;17.90;43.70;;;;;;5071118;28;20176;-22
2022/03/12 11:00:37;;;;;;;4.90;2.80;;;18.00;43.80;;;;;;5071877;28;20512;-20
2022/03/12 11:03:05;;;;;;;7.87;3.03;;;18.00;44.00;;;;;;5071068;28;20172;-19
2022/03/12 11:05:35;;;;;;;8.13;3.50;;;18.00;43.90;;;;;;5069759;28;20302;-18
2022/03/12 11:08:16;;;;;;;4.27;2.73;;;18.00;43.90;;;;;;5072949;28;20229;-21
2022/03/12 11:10:53;;;;;;;4.87;2.83;;;18.00;43.80;;;;;;5072286;28;20202;-20
2022/03/12 11:13:44;;;;;;;8.87;3.10;;;18.00;43.90;;;;;;5069821;28;20243;-20
2022/03/12 11:16:17;;;;;;;5.57;3.03;;;18.00;43.90;;;;;;5072399;28;20159;-17
2022/03/12 11:18:52;;;;;;;6.53;2.80;;;18.00;43.80;;;;;;5070979;28;20175;-17
2022/03/12 11:21:51;;;;;;;6.67;2.87;;;18.00;43.80;;;;;;5071498;28;20194;-17
2022/03/12 11:24:22;;;;;;;7.93;2.60;;;18.00;43.80;;;;;;5071324;28;20946;-18
2022/03/12 11:26:52;;;;;;;5.07;2.73;;;18.00;43.80;;;;;;5072292;28;20315;-20
2022/03/12 11:29:21;;;;;;;4.43;2.90;;;18.00;43.80;;;;;;5070310;28;20183;-20
2022/03/12 11:32:09;;;;;;;4.10;2.77;;;18.00;43.90;;;;;;5053676;28;20277;-20
2022/03/12 11:34:35;;;;;;;3.77;2.80;;;17.90;43.90;;;;;;5071071;28;20160;-21
2022/03/12 11:37:05;;;;;;;3.73;2.80;;;18.00;43.90;;;;;;5071001;28;20461;-19
2022/03/12 11:39:40;;;;;;;4.97;3.17;;;18.00;44.00;;;;;;5070084;28;20487;-17
2022/03/12 11:42:11;;;;;;;3.83;2.40;;;18.00;44.00;;;;;;5069066;28;20233;-17
2022/03/12 11:44:39;;;;;;;6.40;2.70;;;18.00;44.00;;;;;;5070742;28;20176;-18
2022/03/12 11:47:05;;;;;;;5.27;2.40;;;18.00;44.10;;;;;;5069994;28;20583;-18
2022/03/12 11:49:32;;;;;;;4.87;2.80;;;18.00;44.10;;;;;;5071512;28;20171;-18
2022/03/12 11:52:00;;;;;;;3.30;2.50;;;18.00;44.00;;;;;;5070717;28;20353;-19
2022/03/12 11:54:26;;;;;;;3.93;2.67;;;18.00;44.30;;;;;;5069701;28;20166;-20
2022/03/12 11:56:52;;;;;;;4.63;3.03;;;18.00;44.40;;;;;;5069269;28;20240;-19
2022/03/12 11:59:18;;;;;;;4.40;2.67;;;18.00;44.30;;;;;;5070781;28;20193;-19
2022/03/12 12:02:01;;;;;;;3.87;2.67;;;18.10;44.60;;;;;;5070013;28;20175;-22
2022/03/12 12:04:31;;;;;;;3.13;2.77;;;18.10;44.50;;;;;;5070106;28;20251;-19
2022/03/12 12:06:57;;;;;;;3.97;2.70;;;18.10;44.60;;;;;;5069479;28;20448;-22
2022/03/12 12:09:22;;;;;;;4.73;2.90;;;18.10;44.60;;;;;;5069298;28;20378;-17
2022/03/12 12:11:48;;;;;;;4.90;2.90;;;18.10;44.60;;;;;;5068815;28;20201;-17
2022/03/12 12:14:18;;;;;;;4.43;3.00;;;18.10;44.60;;;;;;5070444;28;20166;-16
2022/03/12 12:16:45;;;;;;;5.13;2.80;;;18.10;44.70;;;;;;5069559;28;20174;-21
2022/03/12 12:19:11;;;;;;;3.90;3.00;;;18.10;44.70;;;;;;5069403;28;20214;-17
2022/03/12 12:21:37;;;;;;;5.23;2.90;;;18.10;44.70;;;;;;5068890;28;20353;-18
2022/03/12 12:24:30;;;;;;;3.63;2.60;;;18.10;44.70;;;;;;5066278;28;20444;-17
2022/03/12 12:27:18;;;;;;;11.47;2.90;;;18.10;44.70;;;;;;5068206;28;20186;-19
2022/03/12 12:29:48;;;;;;;4.90;2.80;;;18.10;44.70;;;;;;5070353;28;20168;-20
2022/03/12 12:32:19;;;;;;;4.33;3.00;;;18.10;44.70;;;;;;5069413;28;20196;-20
2022/03/12 12:34:59;;;;;;;3.80;2.90;;;18.10;44.60;;;;;;5068093;28;20584;-19
2022/03/12 12:37:44;;;;;;;4.10;2.73;;;18.10;44.60;;;;;;5067897;28;20202;-15
2022/03/12 12:40:29;;;;;;;3.60;2.73;;;18.20;44.60;;;;;;5068419;28;20256;-20
2022/03/12 12:42:57;;;;;;;3.53;2.80;;;18.20;44.60;;;;;;5069461;28;20514;-19
2022/03/12 12:45:26;;;;;;;6.73;2.80;;;18.20;44.60;;;;;;5068671;28;20189;-18
2022/03/12 12:48:20;;;;;;;4.50;2.70;;;18.20;44.60;;;;;;5066781;28;20179;-20
2022/03/12 12:51:01;;;;;;;4.93;3.20;;;18.20;44.60;;;;;;5068676;28;20615;-17